createdAt,value
2018-08-04T00:00:59.914Z,99.90
2018-08-04T00:05:05.127Z,99.90
2018-08-04T00:09:12.816Z,99.90
2018-08-04T00:13:17.180Z,99.90
2018-08-04T00:17:21.846Z,99.90
2018-08-04T00:21:26.398Z,99.90
2018-08-04T00:25:31.052Z,99.90
2018-08-04T00:29:35.396Z,99.90
2018-08-04T00:33:39.631Z,99.90
2018-08-04T00:37:44.133Z,99.90
2018-08-04T00:41:48.381Z,99.90
2018-08-04T00:45:52.818Z,99.90
2018-08-04T00:49:59.208Z,99.90
2018-08-04T00:54:03.447Z,99.90
2018-08-04T00:58:07.868Z,99.90
2018-08-04T01:02:12.156Z,99.90
2018-08-04T01:06:16.653Z,99.90
2018-08-04T01:10:20.978Z,99.90
2018-08-04T01:14:25.712Z,99.90
2018-08-04T01:18:30.192Z,99.90
2018-08-04T01:22:36.187Z,99.90
2018-08-04T01:26:41.256Z,99.90
2018-08-04T01:30:45.827Z,99.90
2018-08-04T01:34:50.412Z,99.90
2018-08-04T01:38:54.886Z,99.90
2018-08-04T01:42:59.314Z,99.90
2018-08-04T01:47:03.717Z,99.90
2018-08-04T01:51:07.997Z,99.90
2018-08-04T01:55:13.729Z,99.90
2018-08-04T01:59:18.183Z,99.90
2018-08-04T02:03:23.007Z,99.90
2018-08-04T02:07:27.836Z,99.90
2018-08-04T02:11:32.844Z,99.90
2018-08-04T02:15:37.260Z,99.90
2018-08-04T02:19:41.896Z,99.90
2018-08-04T02:23:46.399Z,99.90
2018-08-04T02:27:50.989Z,99.90
2018-08-04T02:31:56.645Z,99.90
2018-08-04T02:36:01.203Z,99.90
2018-08-04T02:40:06.213Z,99.90
2018-08-04T02:44:11.046Z,99.90
2018-08-04T02:48:15.555Z,99.90
2018-08-04T02:52:20.097Z,99.90
2018-08-04T02:56:24.836Z,99.90
2018-08-04T03:00:29.492Z,99.90
2018-08-04T03:04:34.123Z,99.90
2018-08-04T03:08:38.838Z,99.90
2018-08-04T03:12:43.032Z,99.90
2018-08-04T03:16:47.660Z,99.90
2018-08-04T03:20:52.184Z,99.90
2018-08-04T03:24:57.003Z,99.90
2018-08-04T03:29:01.988Z,99.90
2018-08-04T03:33:06.357Z,99.90
2018-08-04T03:37:11.230Z,99.90
2018-08-04T03:41:17.004Z,99.90
2018-08-04T03:45:21.440Z,99.90
2018-08-04T03:49:27.352Z,99.90
2018-08-04T03:53:32.383Z,99.90
2018-08-04T03:57:37.209Z,99.90
2018-08-04T04:01:41.681Z,99.90
2018-08-04T04:05:46.159Z,99.90
2018-08-04T04:09:51.557Z,99.90
2018-08-04T04:13:56.403Z,99.90
2018-08-04T04:18:01.384Z,99.90
2018-08-04T04:22:05.956Z,99.90
2018-08-04T04:26:10.830Z,99.90
2018-08-04T04:30:16.345Z,99.90
2018-08-04T04:34:20.989Z,99.90
2018-08-04T04:38:25.561Z,99.90
2018-08-04T04:42:30.078Z,99.90
2018-08-04T04:46:39.614Z,99.90
2018-08-04T04:50:44.328Z,99.90
2018-08-04T04:54:49.527Z,99.90
2018-08-04T04:58:54.280Z,99.90
2018-08-04T05:02:58.815Z,99.90
2018-08-04T05:07:03.976Z,99.90
2018-08-04T05:11:08.717Z,99.90
2018-08-04T05:15:13.345Z,99.90
2018-08-04T05:19:18.051Z,99.90
2018-08-04T05:23:22.508Z,99.90
2018-08-04T05:27:26.812Z,99.90
2018-08-04T05:31:31.313Z,99.90
2018-08-04T05:35:36.028Z,99.90
2018-08-04T05:39:41.239Z,99.90
2018-08-04T05:43:45.523Z,99.90
2018-08-04T05:47:50.941Z,99.90
2018-08-04T05:51:55.500Z,99.90
2018-08-04T05:55:59.951Z,99.90
2018-08-04T06:00:05.289Z,99.90
2018-08-04T06:04:09.610Z,99.90
2018-08-04T06:08:14.270Z,99.90
2018-08-04T06:12:18.577Z,99.90
2018-08-04T06:16:22.973Z,99.90
2018-08-04T06:20:27.276Z,99.90
2018-08-04T06:24:31.509Z,99.90
2018-08-04T06:28:35.908Z,99.20
2018-08-04T06:32:40.548Z,99.90
2018-08-04T06:36:45.228Z,99.90
2018-08-04T06:40:49.652Z,99.90
2018-08-04T06:44:54.473Z,99.90
2018-08-04T06:48:58.731Z,96.00
2018-08-04T06:53:03.165Z,97.90
2018-08-04T06:57:08.349Z,98.60
2018-08-04T07:01:12.863Z,98.20
2018-08-04T07:05:17.487Z,97.20
2018-08-04T07:09:21.737Z,94.90
2018-08-04T07:13:26.532Z,93.70
2018-08-04T07:17:30.874Z,90.50
2018-08-04T07:21:35.747Z,88.30
2018-08-04T07:25:40.440Z,88.60
2018-08-04T07:29:45.266Z,90.40
2018-08-04T07:33:49.711Z,83.10
2018-08-04T07:37:54.248Z,81.10
2018-08-04T07:41:59.055Z,80.50
2018-08-04T07:46:03.807Z,79.90
2018-08-04T07:50:08.471Z,80.90
2018-08-04T07:54:12.946Z,76.20
2018-08-04T07:58:17.256Z,76.90
2018-08-04T08:02:21.820Z,77.20
2018-08-04T08:06:26.184Z,74.00
2018-08-04T08:10:31.464Z,72.60
2018-08-04T08:14:36.000Z,72.30
2018-08-04T08:18:40.403Z,71.70
2018-08-04T08:22:45.160Z,70.60
2018-08-04T08:26:49.616Z,70.60
2018-08-04T08:30:54.001Z,71.10
2018-08-04T08:34:58.742Z,68.90
2018-08-04T08:39:03.771Z,68.90
2018-08-04T08:43:08.494Z,65.90
2018-08-04T08:47:12.838Z,66.60
2018-08-04T08:51:17.064Z,64.00
2018-08-04T08:55:21.481Z,61.00
2018-08-04T08:59:25.961Z,62.90
2018-08-04T09:03:30.323Z,59.40
2018-08-04T09:07:35.267Z,59.40
2018-08-04T09:11:39.644Z,58.70
2018-08-04T09:15:43.930Z,53.60
2018-08-04T09:19:48.580Z,52.50
2018-08-04T09:23:52.966Z,53.20
2018-08-04T09:27:57.631Z,51.20
2018-08-04T09:32:01.896Z,52.30
2018-08-04T09:36:06.393Z,47.40
2018-08-04T09:40:12.866Z,48.00
2018-08-04T09:44:17.087Z,49.30
2018-08-04T09:48:21.463Z,50.10
2018-08-04T09:52:25.733Z,49.30
2018-08-04T09:56:30.503Z,46.90
2018-08-04T10:00:40.029Z,45.40
2018-08-04T10:04:44.261Z,45.30
2018-08-04T10:08:49.694Z,45.00
2018-08-04T10:12:53.953Z,47.30
2018-08-04T10:16:58.248Z,47.60
2018-08-04T10:21:02.528Z,48.60
2018-08-04T10:25:07.519Z,44.60
2018-08-04T10:29:12.137Z,42.90
2018-08-04T10:33:16.601Z,43.30
2018-08-04T10:37:21.080Z,42.70
2018-08-04T10:41:25.416Z,46.20
2018-08-04T10:45:29.842Z,47.00
2018-08-04T10:49:34.112Z,40.70
2018-08-04T10:53:38.976Z,39.30
2018-08-04T10:57:43.375Z,42.30
2018-08-04T11:01:48.045Z,38.80
2018-08-04T11:05:52.498Z,36.80
2018-08-04T11:09:56.950Z,36.90
2018-08-04T11:14:01.356Z,36.40
2018-08-04T11:18:05.701Z,34.40
2018-08-04T11:22:09.931Z,35.70
2018-08-04T11:26:14.663Z,32.00
2018-08-04T11:30:18.907Z,31.80
2018-08-04T11:34:23.341Z,34.40
2018-08-04T11:38:28.127Z,33.10
2018-08-04T11:42:32.456Z,35.40
2018-08-04T11:46:36.680Z,34.70
2018-08-04T11:50:41.421Z,40.30
2018-08-04T11:54:45.717Z,39.00
2018-08-04T11:58:49.931Z,43.50
2018-08-04T12:02:54.763Z,41.00
2018-08-04T12:06:59.279Z,43.60
2018-08-04T12:11:03.596Z,46.00
2018-08-04T12:15:07.997Z,44.50
2018-08-04T12:19:12.221Z,44.00
2018-08-04T12:23:16.475Z,46.20
2018-08-04T12:27:20.710Z,48.90
2018-08-04T12:31:25.259Z,47.80
2018-08-04T12:35:29.605Z,46.90
2018-08-04T12:39:34.203Z,49.80
2018-08-04T12:43:38.553Z,43.20
2018-08-04T12:47:42.977Z,43.40
2018-08-04T12:51:47.191Z,36.10
2018-08-04T12:55:51.631Z,31.30
2018-08-04T12:59:58.065Z,29.30
2018-08-04T13:04:07.076Z,30.90
2018-08-04T13:08:12.423Z,30.50
2018-08-04T13:12:17.684Z,34.00
2018-08-04T13:16:23.148Z,29.40
2018-08-04T13:20:28.388Z,28.10
2018-08-04T13:24:32.734Z,27.70
2018-08-04T13:28:39.298Z,25.90
2018-08-04T13:32:44.181Z,27.20
2018-08-04T13:36:49.165Z,27.40
2018-08-04T13:40:53.529Z,28.60
2018-08-04T13:44:58.000Z,27.00
2018-08-04T13:49:02.801Z,24.60
2018-08-04T13:53:07.366Z,25.60
2018-08-04T13:57:12.115Z,27.50
2018-08-04T14:01:16.381Z,27.20
2018-08-04T14:05:20.789Z,25.20
2018-08-04T14:09:25.086Z,27.50
2018-08-04T14:13:29.495Z,27.30
2018-08-04T14:17:33.948Z,26.30
2018-08-04T14:21:38.176Z,24.50
2018-08-04T14:25:42.659Z,26.60
2018-08-04T14:29:47.093Z,25.00
2018-08-04T14:34:01.179Z,25.30
2018-08-04T14:38:05.452Z,25.70
2018-08-04T14:42:09.797Z,28.20
2018-08-04T14:46:14.336Z,26.20
2018-08-04T14:50:18.616Z,26.00
2018-08-04T14:54:22.948Z,27.60
2018-08-04T14:58:27.677Z,28.40
2018-08-04T15:02:32.279Z,25.90
2018-08-04T15:06:36.925Z,26.50
2018-08-04T15:10:42.561Z,25.50
2018-08-04T15:14:46.981Z,27.10
2018-08-04T15:18:51.471Z,28.20
2018-08-04T15:22:55.908Z,26.90
2018-08-04T15:27:00.220Z,24.20
2018-08-04T15:31:04.604Z,25.00
2018-08-04T15:35:08.845Z,26.80
2018-08-04T15:39:13.080Z,27.30
2018-08-04T15:43:17.682Z,28.10
2018-08-04T15:47:22.089Z,27.80
2018-08-04T15:51:26.398Z,29.10
2018-08-04T15:55:30.662Z,30.70
2018-08-04T15:59:34.940Z,32.60
2018-08-04T16:03:39.288Z,33.90
2018-08-04T16:07:43.614Z,34.60
2018-08-04T16:11:47.875Z,35.90
2018-08-04T16:15:52.316Z,38.20
2018-08-04T16:19:56.570Z,38.80
2018-08-04T16:24:01.021Z,39.40
2018-08-04T16:28:05.664Z,39.10
2018-08-04T16:32:10.517Z,39.10
2018-08-04T16:36:14.831Z,43.90
2018-08-04T16:40:19.652Z,44.80
2018-08-04T16:44:23.878Z,45.90
2018-08-04T16:48:28.217Z,44.40
2018-08-04T16:52:32.527Z,45.80
2018-08-04T16:56:36.768Z,50.40
2018-08-04T17:00:41.132Z,49.80
2018-08-04T17:04:45.373Z,50.80
2018-08-04T17:08:49.754Z,52.60
2018-08-04T17:12:54.174Z,53.10
2018-08-04T17:16:58.381Z,52.50
2018-08-04T17:21:02.772Z,56.40
2018-08-04T17:25:08.093Z,57.00
2018-08-04T17:29:12.349Z,58.60
2018-08-04T17:33:16.740Z,62.90
2018-08-04T17:37:21.075Z,64.60
2018-08-04T17:41:25.273Z,65.70
2018-08-04T17:45:29.555Z,65.60
2018-08-04T17:49:33.941Z,66.50
2018-08-04T17:53:38.580Z,66.40
2018-08-04T17:57:43.034Z,67.60
2018-08-04T18:01:47.940Z,70.50
2018-08-04T18:05:52.288Z,70.40
2018-08-04T18:09:56.739Z,70.20
2018-08-04T18:14:01.199Z,70.10
2018-08-04T18:18:05.624Z,72.40
2018-08-04T18:22:10.224Z,72.80
2018-08-04T18:26:14.736Z,73.60
2018-08-04T18:30:19.165Z,74.60
2018-08-04T18:34:23.478Z,74.40
2018-08-04T18:38:27.712Z,76.30
2018-08-04T18:42:32.013Z,75.60
2018-08-04T18:46:36.540Z,77.50
2018-08-04T18:50:41.092Z,77.20
2018-08-04T18:54:45.384Z,79.00
2018-08-04T18:58:49.816Z,79.40
2018-08-04T19:02:54.017Z,79.90
2018-08-04T19:06:58.535Z,80.10
2018-08-04T19:11:02.904Z,81.10
2018-08-04T19:15:07.953Z,81.60
2018-08-04T19:19:12.505Z,81.40
2018-08-04T19:23:16.882Z,83.40
2018-08-04T19:27:21.245Z,83.40
2018-08-04T19:31:26.015Z,83.30
2018-08-04T19:35:30.242Z,83.20
2018-08-04T19:39:34.744Z,85.20
2018-08-04T19:43:39.340Z,84.60
2018-08-04T19:47:43.602Z,85.90
2018-08-04T19:51:48.048Z,86.90
2018-08-04T19:55:52.347Z,87.00
2018-08-04T19:59:56.611Z,87.90
2018-08-04T20:04:01.945Z,88.60
2018-08-04T20:08:06.348Z,89.10
2018-08-04T20:12:10.770Z,90.00
2018-08-04T20:16:16.001Z,90.40
2018-08-04T20:20:20.358Z,90.80
2018-08-04T20:24:25.054Z,90.60
2018-08-04T20:28:29.423Z,91.10
2018-08-04T20:32:33.634Z,91.50
2018-08-04T20:36:38.465Z,92.00
2018-08-04T20:40:43.076Z,92.10
2018-08-04T20:44:47.540Z,92.50
2018-08-04T20:48:53.157Z,93.10
2018-08-04T20:52:57.520Z,93.10
2018-08-04T20:57:01.797Z,93.10
2018-08-04T21:01:16.900Z,93.50
2018-08-04T21:05:21.232Z,93.80
2018-08-04T21:09:25.759Z,94.20
2018-08-04T21:13:30.048Z,94.40
2018-08-04T21:17:34.315Z,94.40
2018-08-04T21:21:38.812Z,95.20
2018-08-04T21:25:43.094Z,95.20
2018-08-04T21:29:47.570Z,95.10
2018-08-04T21:33:51.822Z,95.30
2018-08-04T21:37:56.072Z,95.50
2018-08-04T21:42:00.613Z,95.90
2018-08-04T21:46:04.883Z,95.60
2018-08-04T21:50:09.118Z,96.10
2018-08-04T21:58:18.890Z,96.00
2018-08-04T22:02:23.209Z,96.30
2018-08-04T22:06:36.655Z,96.40
2018-08-04T22:10:40.937Z,96.50
2018-08-04T22:14:45.247Z,97.00
2018-08-04T22:18:49.494Z,96.80
2018-08-04T22:22:53.908Z,97.10
2018-08-04T22:26:58.277Z,97.30
2018-08-04T22:31:02.491Z,97.40
2018-08-04T22:35:07.340Z,97.80
2018-08-04T22:39:11.573Z,97.50
2018-08-04T22:43:15.799Z,97.80
2018-08-04T22:47:20.171Z,97.90
2018-08-04T22:51:30.401Z,98.10
2018-08-04T22:55:34.580Z,97.80
2018-08-04T22:59:38.878Z,98.00
2018-08-04T23:07:47.424Z,98.60
2018-08-04T23:11:51.656Z,98.80
2018-08-04T23:15:56.019Z,99.00
2018-08-04T23:20:00.299Z,98.90
2018-08-04T23:24:04.550Z,98.90
2018-08-04T23:28:09.423Z,99.00
2018-08-04T23:32:13.660Z,98.90
2018-08-04T23:36:17.894Z,99.20
2018-08-04T23:40:22.619Z,99.20
2018-08-04T23:44:26.894Z,98.90
2018-08-04T23:48:31.216Z,99.60
2018-08-04T23:52:35.608Z,99.70
2018-08-04T23:56:39.885Z,99.90
